createdAt,value
2019-02-17T00:02:30.234Z,15.97
2019-02-17T00:05:01.126Z,16.30
2019-02-17T00:07:32.138Z,15.97
2019-02-17T00:10:03.044Z,17.37
2019-02-17T00:12:39.027Z,16.50
2019-02-17T00:15:10.668Z,15.93
2019-02-17T00:17:41.616Z,16.37
2019-02-17T00:20:12.537Z,17.90
2019-02-17T00:22:43.515Z,16.47
2019-02-17T00:25:14.415Z,17.20
2019-02-17T00:27:45.344Z,17.37
2019-02-17T00:30:16.253Z,16.53
2019-02-17T00:32:47.202Z,16.80
2019-02-17T00:35:18.104Z,17.50
2019-02-17T00:37:49.054Z,18.27
2019-02-17T00:40:19.956Z,17.13
2019-02-17T00:42:50.889Z,18.10
2019-02-17T00:45:21.848Z,19.43
2019-02-17T00:47:52.785Z,19.20
2019-02-17T00:50:23.702Z,19.40
2019-02-17T00:52:54.693Z,19.33
2019-02-17T00:55:25.599Z,19.83
2019-02-17T00:57:56.537Z,19.03
2019-02-17T01:00:27.505Z,19.40
2019-02-17T01:02:58.448Z,19.77
2019-02-17T01:05:29.355Z,19.73
2019-02-17T01:08:00.361Z,20.07
2019-02-17T01:10:31.267Z,18.90
2019-02-17T01:13:02.225Z,19.20
2019-02-17T01:15:33.131Z,20.33
2019-02-17T01:18:04.054Z,19.90
2019-02-17T01:20:35.765Z,19.77
2019-02-17T01:23:12.102Z,21.53
2019-02-17T01:25:45.321Z,21.07
2019-02-17T01:28:16.249Z,21.97
2019-02-17T01:30:47.143Z,23.67
2019-02-17T01:33:18.145Z,21.93
2019-02-17T01:35:49.046Z,20.83
2019-02-17T01:38:20.029Z,20.53
2019-02-17T01:40:50.931Z,21.60
2019-02-17T01:43:21.893Z,20.60
2019-02-17T01:45:55.487Z,20.87
2019-02-17T01:48:26.409Z,21.30
2019-02-17T01:50:57.319Z,20.87
2019-02-17T01:53:31.319Z,20.67
2019-02-17T01:56:02.217Z,21.43
2019-02-17T01:58:33.152Z,21.73
2019-02-17T02:01:04.169Z,22.20
2019-02-17T02:03:37.766Z,21.90
2019-02-17T02:06:08.664Z,21.93
2019-02-17T02:08:39.606Z,22.27
2019-02-17T02:11:13.584Z,22.47
2019-02-17T02:13:44.612Z,22.77
2019-02-17T02:16:15.518Z,23.90
2019-02-17T02:18:50.996Z,23.07
2019-02-17T02:21:22.850Z,22.23
2019-02-17T02:23:53.779Z,23.53
2019-02-17T02:26:24.682Z,24.33
2019-02-17T02:28:55.623Z,25.53
2019-02-17T02:31:30.701Z,22.40
2019-02-17T02:34:03.228Z,24.53
2019-02-17T02:36:34.130Z,21.73
2019-02-17T02:39:07.847Z,23.37
2019-02-17T02:41:38.751Z,22.90
2019-02-17T02:44:12.152Z,25.40
2019-02-17T02:46:43.129Z,23.10
2019-02-17T02:49:14.124Z,23.97
2019-02-17T02:51:45.027Z,24.60
2019-02-17T02:54:16.061Z,24.63
2019-02-17T02:56:46.962Z,24.80
2019-02-17T02:59:17.900Z,23.70
2019-02-17T03:01:54.257Z,24.37
2019-02-17T03:04:21.512Z,23.73
2019-02-17T03:06:56.988Z,24.30
2019-02-17T03:09:27.937Z,24.47
2019-02-17T03:12:00.359Z,24.87
2019-02-17T03:14:31.286Z,23.53
2019-02-17T03:17:02.187Z,24.77
2019-02-17T03:19:33.130Z,24.50
2019-02-17T03:22:04.099Z,25.97
2019-02-17T03:24:35.046Z,24.57
2019-02-17T03:27:05.958Z,26.03
2019-02-17T03:29:36.889Z,26.20
2019-02-17T03:32:07.869Z,25.47
2019-02-17T03:34:38.801Z,28.47
2019-02-17T03:37:09.761Z,27.70
2019-02-17T03:39:41.216Z,26.33
2019-02-17T03:42:12.130Z,26.90
2019-02-17T03:44:43.141Z,26.60
2019-02-17T03:47:14.033Z,27.23
2019-02-17T03:49:44.966Z,27.47
2019-02-17T03:52:15.864Z,27.43
2019-02-17T03:54:48.379Z,27.67
2019-02-17T03:57:20.873Z,27.20
2019-02-17T03:59:51.826Z,27.67
2019-02-17T04:02:22.795Z,28.17
2019-02-17T04:04:53.723Z,27.50
2019-02-17T04:07:24.627Z,27.40
2019-02-17T04:09:55.571Z,27.13
2019-02-17T04:12:26.490Z,26.83
2019-02-17T04:14:57.416Z,26.97
2019-02-17T04:17:28.446Z,27.37
2019-02-17T04:19:59.375Z,28.10
2019-02-17T04:22:30.273Z,27.00
2019-02-17T04:25:01.258Z,26.10
2019-02-17T04:27:32.157Z,27.43
2019-02-17T04:30:03.306Z,27.30
2019-02-17T04:32:34.216Z,28.17
2019-02-17T04:35:05.455Z,27.10
2019-02-17T04:37:36.357Z,27.93
2019-02-17T04:40:07.703Z,26.30
2019-02-17T04:42:38.604Z,27.10
2019-02-17T04:45:09.529Z,24.93
2019-02-17T04:47:41.957Z,26.03
2019-02-17T04:50:12.901Z,25.10
2019-02-17T04:52:43.817Z,25.27
2019-02-17T04:55:14.758Z,25.67
2019-02-17T04:57:45.673Z,24.90
2019-02-17T05:00:17.691Z,24.57
2019-02-17T05:02:48.557Z,24.93
2019-02-17T05:05:19.477Z,23.93
2019-02-17T05:07:59.215Z,24.33
2019-02-17T05:10:33.122Z,22.80
2019-02-17T05:13:04.015Z,24.77
2019-02-17T05:15:34.977Z,23.80
2019-02-17T05:18:07.531Z,22.20
2019-02-17T05:20:38.480Z,23.13
2019-02-17T05:23:10.296Z,21.67
2019-02-17T05:25:41.256Z,23.20
2019-02-17T05:28:12.158Z,23.30
2019-02-17T05:30:52.124Z,22.30
2019-02-17T05:33:15.697Z,22.33
2019-02-17T05:35:46.633Z,22.00
2019-02-17T05:38:17.542Z,21.70
2019-02-17T05:40:48.501Z,21.10
2019-02-17T05:43:19.410Z,21.03
2019-02-17T05:45:51.933Z,21.23
2019-02-17T05:48:22.843Z,21.77
2019-02-17T05:50:53.779Z,20.77
2019-02-17T05:53:24.693Z,21.97
2019-02-17T05:55:57.226Z,24.00
2019-02-17T05:58:28.206Z,23.87
2019-02-17T06:01:04.130Z,24.63
2019-02-17T06:03:34.263Z,22.50
2019-02-17T06:06:08.130Z,23.87
2019-02-17T06:08:39.029Z,22.30
2019-02-17T06:11:10.003Z,21.77
2019-02-17T06:13:40.910Z,20.80
2019-02-17T06:16:16.260Z,22.43
2019-02-17T06:18:49.598Z,20.07
2019-02-17T06:21:20.531Z,23.37
2019-02-17T06:23:54.229Z,21.93
2019-02-17T06:26:25.194Z,21.87
2019-02-17T06:28:56.103Z,21.97
2019-02-17T06:31:27.042Z,21.37
2019-02-17T06:33:59.581Z,21.23
2019-02-17T06:36:30.516Z,21.27
2019-02-17T06:39:01.418Z,21.67
2019-02-17T06:41:32.383Z,21.30
2019-02-17T06:44:03.295Z,21.73
2019-02-17T06:46:35.891Z,22.97
2019-02-17T06:49:06.778Z,23.03
2019-02-17T06:51:37.712Z,23.03
2019-02-17T06:54:08.606Z,22.77
2019-02-17T06:56:43.911Z,23.63
2019-02-17T06:59:14.821Z,22.40
2019-02-17T07:01:45.826Z,21.70
2019-02-17T07:04:16.728Z,22.73
2019-02-17T07:06:49.305Z,21.43
2019-02-17T07:09:20.201Z,21.80
2019-02-17T07:11:52.681Z,22.17
2019-02-17T07:14:23.573Z,22.70
2019-02-17T07:16:54.505Z,22.23
2019-02-17T07:19:25.418Z,24.33
2019-02-17T07:21:56.342Z,24.20
2019-02-17T07:24:27.251Z,25.20
2019-02-17T07:27:00.057Z,24.70
2019-02-17T07:29:35.708Z,25.20
2019-02-17T07:32:06.362Z,25.33
2019-02-17T07:34:40.222Z,25.33
2019-02-17T07:37:11.155Z,24.63
2019-02-17T07:39:42.064Z,25.67
2019-02-17T07:42:13.295Z,24.93
2019-02-17T07:44:44.198Z,29.13
2019-02-17T07:47:15.131Z,28.57
2019-02-17T07:49:46.024Z,29.07
2019-02-17T07:52:16.962Z,28.33
2019-02-17T07:54:55.377Z,28.50
2019-02-17T07:57:23.312Z,30.87
2019-02-17T07:59:54.227Z,33.00
2019-02-17T08:02:25.153Z,28.40
2019-02-17T08:04:56.057Z,28.07
2019-02-17T08:07:26.979Z,27.93
2019-02-17T08:09:57.895Z,25.03
2019-02-17T08:12:28.897Z,27.27
2019-02-17T08:14:59.803Z,28.27
2019-02-17T08:17:30.741Z,26.87
2019-02-17T08:20:02.141Z,26.47
2019-02-17T08:22:33.052Z,28.37
2019-02-17T08:25:04.551Z,24.67
2019-02-17T08:27:35.522Z,25.73
2019-02-17T08:30:09.402Z,35.53
2019-02-17T08:32:40.332Z,29.03
2019-02-17T08:35:11.233Z,28.63
2019-02-17T08:37:42.277Z,26.87
2019-02-17T08:40:13.215Z,27.87
2019-02-17T08:42:47.138Z,27.10
2019-02-17T08:45:18.030Z,28.83
2019-02-17T08:47:48.966Z,29.53
2019-02-17T08:50:20.180Z,30.07
2019-02-17T08:52:51.274Z,30.70
2019-02-17T08:55:22.175Z,30.63
2019-02-17T08:57:55.935Z,29.80
2019-02-17T09:00:26.909Z,29.80
2019-02-17T09:02:57.833Z,30.23
2019-02-17T09:05:30.203Z,36.00
2019-02-17T09:08:01.226Z,33.13
2019-02-17T09:10:32.282Z,31.63
2019-02-17T09:13:03.359Z,31.20
2019-02-17T09:15:35.208Z,35.03
2019-02-17T09:18:06.170Z,42.37
2019-02-17T09:20:39.957Z,34.10
2019-02-17T09:23:12.571Z,31.13
2019-02-17T09:25:43.567Z,29.47
2019-02-17T09:28:14.647Z,29.73
2019-02-17T09:30:47.133Z,30.03
2019-02-17T09:33:18.078Z,28.27
2019-02-17T09:35:48.989Z,32.07
2019-02-17T09:38:19.897Z,33.03
2019-02-17T09:40:53.755Z,32.05
2019-02-17T09:43:24.725Z,31.90
2019-02-17T09:45:55.618Z,30.68
2019-02-17T09:48:26.539Z,34.23
2019-02-17T09:50:57.445Z,31.23
2019-02-17T09:53:28.395Z,34.17
2019-02-17T09:56:00.186Z,31.90
2019-02-17T09:58:31.139Z,35.33
2019-02-17T10:01:02.054Z,37.25
2019-02-17T10:03:32.987Z,34.78
2019-02-17T10:06:03.894Z,35.57
2019-02-17T10:08:34.834Z,40.95
2019-02-17T10:11:05.820Z,42.53
2019-02-17T10:13:39.725Z,37.95
2019-02-17T10:16:10.629Z,38.58
2019-02-17T10:18:41.572Z,39.78
2019-02-17T10:21:12.474Z,29.63
2019-02-17T10:23:43.418Z,38.43
2019-02-17T10:26:14.327Z,33.17
2019-02-17T10:28:45.290Z,38.58
2019-02-17T10:31:16.203Z,36.80
2019-02-17T10:33:47.131Z,36.98
2019-02-17T10:36:18.053Z,36.65
2019-02-17T10:38:49.002Z,42.88
2019-02-17T10:41:19.924Z,38.80
2019-02-17T10:43:50.891Z,36.87
2019-02-17T10:46:21.804Z,37.55
2019-02-17T10:48:52.734Z,34.63
2019-02-17T10:51:23.651Z,35.03
2019-02-17T10:53:54.587Z,35.43
2019-02-17T10:56:25.494Z,30.77
2019-02-17T10:58:56.492Z,30.35
2019-02-17T11:01:27.398Z,28.50
2019-02-17T11:04:03.714Z,36.48
2019-02-17T11:06:34.637Z,28.20
2019-02-17T11:09:08.520Z,30.25
2019-02-17T11:11:39.438Z,30.33
2019-02-17T11:14:10.397Z,30.70
2019-02-17T11:16:41.377Z,31.95
2019-02-17T11:19:12.320Z,30.00
2019-02-17T11:21:43.235Z,32.90
2019-02-17T11:24:14.172Z,34.20
2019-02-17T11:26:45.157Z,29.67
2019-02-17T11:29:16.223Z,31.57
2019-02-17T11:31:47.127Z,32.33
2019-02-17T11:34:18.087Z,33.00
2019-02-17T11:36:49.032Z,28.50
2019-02-17T11:39:20.154Z,28.15
2019-02-17T11:41:51.083Z,28.85
2019-02-17T11:44:22.036Z,27.52
2019-02-17T11:46:52.952Z,30.85
2019-02-17T11:49:23.892Z,27.80
2019-02-17T11:51:54.816Z,28.32
2019-02-17T11:54:25.762Z,28.32
2019-02-17T11:56:56.739Z,28.60
2019-02-17T11:59:27.694Z,26.60
2019-02-17T12:01:58.600Z,26.25
2019-02-17T12:04:29.604Z,25.92
2019-02-17T12:07:00.583Z,27.47
2019-02-17T12:09:31.584Z,27.23
2019-02-17T12:12:04.098Z,27.32
2019-02-17T12:14:35.067Z,26.97
2019-02-17T12:17:05.972Z,29.67
2019-02-17T12:19:36.922Z,27.93
2019-02-17T12:22:12.185Z,28.27
2019-02-17T12:24:46.005Z,23.83
2019-02-17T12:27:21.795Z,24.98
2019-02-17T12:29:54.338Z,24.67
2019-02-17T12:32:26.885Z,25.80
2019-02-17T12:35:02.199Z,25.20
2019-02-17T12:37:33.114Z,25.68
2019-02-17T12:40:05.367Z,25.75
2019-02-17T12:42:36.617Z,24.98
2019-02-17T12:45:10.571Z,25.68
2019-02-17T12:47:41.482Z,25.37
2019-02-17T12:50:12.731Z,27.43
2019-02-17T12:52:47.065Z,24.75
2019-02-17T12:55:16.299Z,24.07
2019-02-17T12:57:47.220Z,25.75
2019-02-17T13:00:18.783Z,28.07
2019-02-17T13:02:49.691Z,26.07
2019-02-17T13:05:20.630Z,26.55
2019-02-17T13:07:51.532Z,25.25
2019-02-17T13:10:22.487Z,25.68
2019-02-17T13:12:53.393Z,26.30
2019-02-17T13:15:24.349Z,24.67
2019-02-17T13:17:55.259Z,23.33
2019-02-17T13:20:26.207Z,23.53
2019-02-17T13:22:57.132Z,21.95
2019-02-17T13:25:28.066Z,24.37
2019-02-17T13:28:00.615Z,26.85
2019-02-17T13:30:31.887Z,25.93
2019-02-17T13:33:02.773Z,24.40
2019-02-17T13:35:33.705Z,22.53
2019-02-17T13:38:04.609Z,21.37
2019-02-17T13:40:35.545Z,23.67
2019-02-17T13:43:06.450Z,23.00
2019-02-17T13:45:37.497Z,23.20
2019-02-17T13:48:14.094Z,22.40
2019-02-17T13:50:45.031Z,24.30
2019-02-17T13:53:17.399Z,27.17
2019-02-17T13:55:48.337Z,27.17
2019-02-17T13:58:19.233Z,25.53
2019-02-17T14:00:50.178Z,25.90
2019-02-17T14:03:21.081Z,27.83
2019-02-17T14:05:52.063Z,27.32
2019-02-17T14:08:25.640Z,39.57
2019-02-17T14:10:56.597Z,29.40
2019-02-17T14:13:27.496Z,24.98
2019-02-17T14:15:58.461Z,23.22
2019-02-17T14:18:29.366Z,22.87
2019-02-17T14:21:00.293Z,20.43
2019-02-17T14:23:31.248Z,20.90
2019-02-17T14:26:02.172Z,20.00
2019-02-17T14:28:33.889Z,22.93
2019-02-17T14:31:06.365Z,27.47
2019-02-17T14:33:40.347Z,23.10
2019-02-17T14:36:14.364Z,24.47
2019-02-17T14:38:45.266Z,23.17
2019-02-17T14:41:16.210Z,21.80
2019-02-17T14:43:47.108Z,26.27
2019-02-17T14:46:18.056Z,24.70
2019-02-17T14:48:48.961Z,25.60
2019-02-17T14:51:19.894Z,33.05
2019-02-17T14:53:50.794Z,27.67
2019-02-17T14:56:21.727Z,30.00
2019-02-17T14:58:52.631Z,31.73
2019-02-17T15:01:23.664Z,38.57
2019-02-17T15:03:54.575Z,34.43
2019-02-17T15:06:25.504Z,34.97
2019-02-17T15:08:56.404Z,28.30
2019-02-17T15:11:27.336Z,26.27
2019-02-17T15:13:58.242Z,25.00
2019-02-17T15:16:29.313Z,29.47
2019-02-17T15:19:00.600Z,31.20
2019-02-17T15:21:31.538Z,27.27
2019-02-17T15:24:02.453Z,31.13
2019-02-17T15:26:33.374Z,44.87
2019-02-17T15:29:04.283Z,49.77
2019-02-17T15:31:35.235Z,29.60
2019-02-17T15:34:06.133Z,27.50
2019-02-17T15:36:37.063Z,31.80
2019-02-17T15:39:08.277Z,27.00
2019-02-17T15:41:42.157Z,29.70
2019-02-17T15:44:14.721Z,26.57
2019-02-17T15:46:45.856Z,24.73
2019-02-17T15:49:18.601Z,26.67
2019-02-17T15:51:49.464Z,29.57
2019-02-17T15:54:20.361Z,28.97
2019-02-17T15:56:55.834Z,25.53
2019-02-17T15:59:26.738Z,28.83
2019-02-17T16:01:57.675Z,29.57
2019-02-17T16:04:28.937Z,30.47
2019-02-17T16:06:59.983Z,34.20
2019-02-17T16:09:30.892Z,28.77
2019-02-17T16:12:01.813Z,33.17
2019-02-17T16:14:32.731Z,29.63
2019-02-17T16:17:03.697Z,32.00
2019-02-17T16:19:34.675Z,25.30
2019-02-17T16:22:05.603Z,37.07
2019-02-17T16:24:36.531Z,75.17
2019-02-17T16:27:07.466Z,71.43
2019-02-17T16:29:38.374Z,56.33
2019-02-17T16:32:09.338Z,42.77
2019-02-17T16:34:40.246Z,44.63
2019-02-17T16:37:11.174Z,38.03
2019-02-17T16:39:42.083Z,34.67
2019-02-17T16:42:13.012Z,38.13
2019-02-17T16:44:43.913Z,36.43
2019-02-17T16:47:14.873Z,38.97
2019-02-17T16:49:45.777Z,39.13
2019-02-17T16:52:16.705Z,32.23
2019-02-17T16:54:47.596Z,36.97
2019-02-17T16:57:18.524Z,48.60
2019-02-17T16:59:49.423Z,41.07
2019-02-17T17:02:20.379Z,42.93
2019-02-17T17:04:51.281Z,45.33
2019-02-17T17:07:22.217Z,46.23
2019-02-17T17:09:53.183Z,43.60
2019-02-17T17:12:24.911Z,42.33
2019-02-17T17:14:55.895Z,50.40
2019-02-17T17:17:26.871Z,58.53
2019-02-17T17:19:57.848Z,47.10
2019-02-17T17:22:28.862Z,42.37
2019-02-17T17:24:59.866Z,39.83
2019-02-17T17:27:30.796Z,35.17
2019-02-17T17:30:03.467Z,40.33
2019-02-17T17:32:34.526Z,42.00
2019-02-17T17:35:07.528Z,50.33
2019-02-17T17:37:39.075Z,55.33
2019-02-17T17:40:17.527Z,48.80
2019-02-17T17:42:51.156Z,40.93
2019-02-17T17:45:22.647Z,38.10
2019-02-17T17:47:53.599Z,40.10
2019-02-17T17:50:24.498Z,39.57
2019-02-17T17:52:55.436Z,44.90
2019-02-17T17:55:28.436Z,40.83
2019-02-17T17:57:58.964Z,42.77
2019-02-17T18:00:31.508Z,47.63
2019-02-17T18:03:02.608Z,45.00
2019-02-17T18:05:33.509Z,44.43
2019-02-17T18:08:04.519Z,43.43
2019-02-17T18:10:35.481Z,48.53
2019-02-17T18:13:06.413Z,47.17
2019-02-17T18:15:40.255Z,39.47
2019-02-17T18:18:11.229Z,45.83
2019-02-17T18:20:42.139Z,43.17
2019-02-17T18:23:14.593Z,36.23
2019-02-17T18:25:45.493Z,37.93
2019-02-17T18:28:16.431Z,35.90
2019-02-17T18:30:47.337Z,42.00
2019-02-17T18:33:18.304Z,53.83
2019-02-17T18:35:49.210Z,58.07
2019-02-17T18:38:20.149Z,58.03
2019-02-17T18:40:51.050Z,38.70
2019-02-17T18:43:21.987Z,37.87
2019-02-17T18:45:52.887Z,35.47
2019-02-17T18:48:23.865Z,31.47
2019-02-17T18:50:59.109Z,35.23
2019-02-17T18:53:27.400Z,32.60
2019-02-17T18:55:58.307Z,32.77
2019-02-17T18:58:29.253Z,34.43
2019-02-17T19:01:00.213Z,31.33
2019-02-17T19:03:31.203Z,32.87
2019-02-17T19:06:02.109Z,29.17
2019-02-17T19:08:33.056Z,30.80
2019-02-17T19:11:03.958Z,31.60
2019-02-17T19:13:34.904Z,31.60
2019-02-17T19:16:05.807Z,28.60
2019-02-17T19:18:36.775Z,43.30
2019-02-17T19:21:07.673Z,42.00
2019-02-17T19:23:38.601Z,38.77
2019-02-17T19:26:09.522Z,34.83
2019-02-17T19:28:40.452Z,40.77
2019-02-17T19:31:11.493Z,36.67
2019-02-17T19:33:45.576Z,33.73
2019-02-17T19:36:16.500Z,31.33
2019-02-17T19:38:47.430Z,31.43
2019-02-17T19:41:18.324Z,30.47
2019-02-17T19:43:51.953Z,28.33
2019-02-17T19:46:22.857Z,28.63
2019-02-17T19:48:53.818Z,28.23
2019-02-17T19:51:24.726Z,26.27
2019-02-17T19:53:55.735Z,27.23
2019-02-17T19:56:26.637Z,28.43
2019-02-17T19:58:57.580Z,25.93
2019-02-17T20:01:28.547Z,49.90
2019-02-17T20:04:19.428Z,41.70
2019-02-17T20:06:50.399Z,31.70
2019-02-17T20:09:21.335Z,31.80
2019-02-17T20:11:52.501Z,27.93
2019-02-17T20:14:24.141Z,25.77
2019-02-17T20:16:55.039Z,32.73
2019-02-17T20:19:26.013Z,28.27
2019-02-17T20:21:56.907Z,22.93
2019-02-17T20:24:27.833Z,25.00
2019-02-17T20:26:58.736Z,27.53
2019-02-17T20:29:29.665Z,28.93
2019-02-17T20:32:00.716Z,40.37
2019-02-17T20:34:31.687Z,41.97
2019-02-17T20:37:02.588Z,31.83
2019-02-17T20:39:33.517Z,29.37
2019-02-17T20:42:04.426Z,24.20
2019-02-17T20:44:35.363Z,26.57
2019-02-17T20:47:06.264Z,31.27
2019-02-17T20:49:40.150Z,39.40
2019-02-17T20:52:11.468Z,49.67
2019-02-17T20:54:42.399Z,39.83
2019-02-17T20:57:13.329Z,33.47
2019-02-17T20:59:44.240Z,34.77
2019-02-17T21:02:15.135Z,27.40
2019-02-17T21:04:46.454Z,28.57
2019-02-17T21:07:17.353Z,24.53
2019-02-17T21:09:48.296Z,25.30
2019-02-17T21:12:19.275Z,25.23
2019-02-17T21:14:50.215Z,24.07
2019-02-17T21:17:21.116Z,24.90
2019-02-17T21:19:52.182Z,25.40
2019-02-17T21:22:23.765Z,27.10
2019-02-17T21:24:55.459Z,26.07
2019-02-17T21:27:26.383Z,24.10
2019-02-17T21:29:57.309Z,24.60
2019-02-17T21:32:28.211Z,24.30
2019-02-17T21:34:59.165Z,27.67
2019-02-17T21:37:30.071Z,29.80
2019-02-17T21:40:01.010Z,25.10
2019-02-17T21:42:31.916Z,25.40
2019-02-17T21:45:02.843Z,24.57
2019-02-17T21:47:33.746Z,24.87
2019-02-17T21:50:07.392Z,25.73
2019-02-17T21:52:38.295Z,25.60
2019-02-17T21:55:10.523Z,24.97
2019-02-17T21:57:41.510Z,24.63
2019-02-17T22:00:20.031Z,25.33
2019-02-17T22:02:50.934Z,25.30
2019-02-17T22:05:21.901Z,27.63
2019-02-17T22:07:52.807Z,24.73
2019-02-17T22:10:26.681Z,23.97
2019-02-17T22:12:59.231Z,25.63
2019-02-17T22:15:32.866Z,23.27
2019-02-17T22:18:03.772Z,26.13
2019-02-17T22:20:34.761Z,24.27
2019-02-17T22:23:05.660Z,25.80
2019-02-17T22:25:37.094Z,25.27
2019-02-17T22:28:08.020Z,24.97
2019-02-17T22:30:38.941Z,23.57
2019-02-17T22:33:09.848Z,25.00
2019-02-17T22:35:43.340Z,26.27
2019-02-17T22:38:14.332Z,26.90
2019-02-17T22:40:45.269Z,29.60
2019-02-17T22:43:16.168Z,28.23
2019-02-17T22:45:47.104Z,25.10
2019-02-17T22:48:18.008Z,21.63
2019-02-17T22:50:48.982Z,23.73
2019-02-17T22:53:19.886Z,24.60
2019-02-17T22:55:50.818Z,24.17
2019-02-17T22:58:21.729Z,22.70
2019-02-17T23:01:00.167Z,22.97
2019-02-17T23:03:31.483Z,21.17
2019-02-17T23:06:02.558Z,21.83
2019-02-17T23:08:33.571Z,22.60
2019-02-17T23:11:06.128Z,22.20
2019-02-17T23:13:38.135Z,22.77
2019-02-17T23:16:10.556Z,24.17
2019-02-17T23:18:41.464Z,23.23
2019-02-17T23:21:12.423Z,23.87
2019-02-17T23:23:44.976Z,23.23
2019-02-17T23:26:18.943Z,26.13
2019-02-17T23:28:49.846Z,25.77
2019-02-17T23:31:25.268Z,25.23
2019-02-17T23:33:56.179Z,26.37
2019-02-17T23:36:27.202Z,26.70
2019-02-17T23:38:58.104Z,26.13
2019-02-17T23:41:31.572Z,28.47
2019-02-17T23:44:01.643Z,25.93
2019-02-17T23:46:32.586Z,27.20
2019-02-17T23:49:03.482Z,23.43
2019-02-17T23:51:37.450Z,25.47
2019-02-17T23:54:08.354Z,23.53
2019-02-17T23:56:39.298Z,25.53
2019-02-17T23:59:11.853Z,24.43
